Terminal Aerodrome Forecast
Issued by NWS

Current Version | Previous Version | Graphics & Text | Print | Product List | Glossary On
Versions: 1 2 3 4 5 6 7 8 9 10 11 12 13 14 15 16 17 18 19 20 21 22 23 24 25 26 27 28
237
FTUS41 KILN 270438 AAC
TAFLUK
TAF AMD
KLUK 270438Z 2705/2724 VRB03KT P6SM -SHRA SCT022 BKN100
     FM270700 02005KT 5SM BR OVC022
     FM271000 02006KT 5SM BR OVC018
      TEMPO 2711/2715 OVC008
     FM271500 09010KT P6SM BKN025
     FM272000 12010KT P6SM VCSH BKN035=

USA.gov is the U.S. government's official web portal to all federal, state and local government web resources and services.